sensor_id;sensor_type;location;lat;lon;timestamp;P1;durP1;ratioP1;P2;durP2;ratioP2
25609;SDS011;13479;49.044;8.716;2024-03-17T05:01:07;14.63;;;8.00;;
25609;SDS011;13479;49.044;8.716;2024-03-17T05:03:33;12.00;;;7.40;;
25609;SDS011;13479;49.044;8.716;2024-03-17T05:06:00;14.23;;;8.50;;
25609;SDS011;13479;49.044;8.716;2024-03-17T05:08:26;16.47;;;9.10;;
25609;SDS011;13479;49.044;8.716;2024-03-17T05:10:55;16.03;;;8.70;;
25609;SDS011;13479;49.044;8.716;2024-03-17T05:13:21;19.93;;;9.67;;
25609;SDS011;13479;49.044;8.716;2024-03-17T05:15:47;14.73;;;8.50;;
25609;SDS011;13479;49.044;8.716;2024-03-17T05:18:12;14.87;;;9.07;;
25609;SDS011;13479;49.044;8.716;2024-03-17T05:20:37;16.90;;;9.37;;
25609;SDS011;13479;49.044;8.716;2024-03-17T05:23:02;15.57;;;9.40;;
25609;SDS011;13479;49.044;8.716;2024-03-17T05:25:28;18.90;;;11.10;;
25609;SDS011;13479;49.044;8.716;2024-03-17T05:27:53;15.27;;;8.67;;
25609;SDS011;13479;49.044;8.716;2024-03-17T05:30:18;14.10;;;8.47;;
25609;SDS011;13479;49.044;8.716;2024-03-17T05:32:44;13.93;;;7.83;;
25609;SDS011;13479;49.044;8.716;2024-03-17T05:35:09;17.83;;;9.60;;
25609;SDS011;13479;49.044;8.716;2024-03-17T05:37:34;19.43;;;9.60;;
25609;SDS011;13479;49.044;8.716;2024-03-17T05:40:00;19.90;;;9.23;;
25609;SDS011;13479;49.044;8.716;2024-03-17T05:42:25;17.37;;;9.40;;
25609;SDS011;13479;49.044;8.716;2024-03-17T05:44:51;17.80;;;9.50;;
25609;SDS011;13479;49.044;8.716;2024-03-17T05:47:18;16.57;;;8.83;;
25609;SDS011;13479;49.044;8.716;2024-03-17T05:49:43;19.03;;;9.43;;
25609;SDS011;13479;49.044;8.716;2024-03-17T05:52:09;12.83;;;8.13;;
25609;SDS011;13479;49.044;8.716;2024-03-17T05:54:35;15.53;;;8.37;;
25609;SDS011;13479;49.044;8.716;2024-03-17T05:57:00;13.60;;;7.90;;
25609;SDS011;13479;49.044;8.716;2024-03-17T05:59:29;13.30;;;8.03;;
25609;SDS011;13479;49.044;8.716;2024-03-17T06:01:56;12.57;;;8.10;;
25609;SDS011;13479;49.044;8.716;2024-03-17T06:04:21;13.10;;;7.70;;
25609;SDS011;13479;49.044;8.716;2024-03-17T06:06:46;13.43;;;7.80;;
25609;SDS011;13479;49.044;8.716;2024-03-17T06:09:13;12.63;;;7.53;;
25609;SDS011;13479;49.044;8.716;2024-03-17T06:11:42;1999.90;;;999.90;;
25609;SDS011;13479;49.044;8.716;2024-03-17T06:14:08;1999.90;;;999.90;;
25609;SDS011;13479;49.044;8.716;2024-03-17T06:16:36;1999.90;;;999.90;;
25609;SDS011;13479;49.044;8.716;2024-03-17T06:19:02;1999.90;;;999.90;;
25609;SDS011;13479;49.044;8.716;2024-03-17T06:21:28;1999.90;;;999.90;;
25609;SDS011;13479;49.044;8.716;2024-03-17T06:23:53;1999.90;;;999.90;;
25609;SDS011;13479;49.044;8.716;2024-03-17T06:26:19;1999.90;;;999.90;;
25609;SDS011;13479;49.044;8.716;2024-03-17T06:28:45;19.55;;;17.95;;
25609;SDS011;13479;49.044;8.716;2024-03-17T06:31:10;11.43;;;10.43;;
25609;SDS011;13479;49.044;8.716;2024-03-17T06:33:36;7.90;;;6.70;;
25609;SDS011;13479;49.044;8.716;2024-03-17T06:36:02;6.85;;;5.68;;
25609;SDS011;13479;49.044;8.716;2024-03-17T06:38:29;8.27;;;5.85;;
25609;SDS011;13479;49.044;8.716;2024-03-17T06:40:54;6.03;;;5.38;;
25609;SDS011;13479;49.044;8.716;2024-03-17T06:43:20;8.45;;;5.20;;
25609;SDS011;13479;49.044;8.716;2024-03-17T06:45:54;5.65;;;5.05;;
25609;SDS011;13479;49.044;8.716;2024-03-17T06:48:21;5.90;;;4.93;;
25609;SDS011;13479;49.044;8.716;2024-03-17T06:50:46;6.97;;;5.25;;
25609;SDS011;13479;49.044;8.716;2024-03-17T06:53:11;6.72;;;5.22;;
25609;SDS011;13479;49.044;8.716;2024-03-17T06:55:37;11.60;;;6.78;;
25609;SDS011;13479;49.044;8.716;2024-03-17T06:58:02;8.85;;;6.60;;
25609;SDS011;13479;49.044;8.716;2024-03-17T07:00:28;8.68;;;6.53;;
25609;SDS011;13479;49.044;8.716;2024-03-17T07:02:53;8.93;;;6.32;;
25609;SDS011;13479;49.044;8.716;2024-03-17T07:05:19;7.60;;;6.00;;
25609;SDS011;13479;49.044;8.716;2024-03-17T07:07:44;8.65;;;6.38;;
25609;SDS011;13479;49.044;8.716;2024-03-17T07:10:10;9.55;;;6.43;;
25609;SDS011;13479;49.044;8.716;2024-03-17T07:12:40;7.63;;;5.22;;
25609;SDS011;13479;49.044;8.716;2024-03-17T07:15:07;7.03;;;4.22;;
25609;SDS011;13479;49.044;8.716;2024-03-17T07:17:33;7.00;;;4.22;;
25609;SDS011;13479;49.044;8.716;2024-03-17T07:19:59;6.63;;;4.38;;
25609;SDS011;13479;49.044;8.716;2024-03-17T07:22:24;8.20;;;5.30;;
25609;SDS011;13479;49.044;8.716;2024-03-17T07:24:53;8.15;;;5.70;;
25609;SDS011;13479;49.044;8.716;2024-03-17T07:27:25;7.43;;;4.60;;
25609;SDS011;13479;49.044;8.716;2024-03-17T07:29:51;6.80;;;4.55;;
25609;SDS011;13479;49.044;8.716;2024-03-17T07:32:16;7.03;;;4.70;;
25609;SDS011;13479;49.044;8.716;2024-03-17T07:34:42;8.98;;;4.82;;
25609;SDS011;13479;49.044;8.716;2024-03-17T07:37:07;5.78;;;4.10;;
25609;SDS011;13479;49.044;8.716;2024-03-17T07:39:32;6.15;;;4.63;;
25609;SDS011;13479;49.044;8.716;2024-03-17T07:41:58;5.78;;;4.70;;
25609;SDS011;13479;49.044;8.716;2024-03-17T07:44:26;5.97;;;4.55;;
25609;SDS011;13479;49.044;8.716;2024-03-17T07:46:59;5.45;;;3.95;;
25609;SDS011;13479;49.044;8.716;2024-03-17T07:49:29;7.10;;;4.55;;
25609;SDS011;13479;49.044;8.716;2024-03-17T07:51:54;7.40;;;4.43;;
25609;SDS011;13479;49.044;8.716;2024-03-17T07:54:19;6.55;;;4.70;;
25609;SDS011;13479;49.044;8.716;2024-03-17T07:56:44;7.13;;;5.20;;
25609;SDS011;13479;49.044;8.716;2024-03-17T07:59:11;8.20;;;4.82;;
25609;SDS011;13479;49.044;8.716;2024-03-17T08:01:39;7.53;;;5.32;;
25609;SDS011;13479;49.044;8.716;2024-03-17T08:04:04;8.30;;;4.85;;
25609;SDS011;13479;49.044;8.716;2024-03-17T08:06:29;8.48;;;5.18;;
25609;SDS011;13479;49.044;8.716;2024-03-17T08:08:55;7.90;;;5.10;;
25609;SDS011;13479;49.044;8.716;2024-03-17T08:11:20;7.88;;;5.72;;
25609;SDS011;13479;49.044;8.716;2024-03-17T08:13:45;8.57;;;5.85;;
25609;SDS011;13479;49.044;8.716;2024-03-17T08:16:11;8.32;;;5.80;;
25609;SDS011;13479;49.044;8.716;2024-03-17T08:18:36;7.82;;;5.07;;
25609;SDS011;13479;49.044;8.716;2024-03-17T08:21:02;8.02;;;5.10;;
25609;SDS011;13479;49.044;8.716;2024-03-17T08:23:34;10.75;;;5.45;;
25609;SDS011;13479;49.044;8.716;2024-03-17T08:26:06;8.40;;;5.55;;
25609;SDS011;13479;49.044;8.716;2024-03-17T08:28:31;7.68;;;5.30;;
25609;SDS011;13479;49.044;8.716;2024-03-17T08:30:57;6.97;;;4.45;;
25609;SDS011;13479;49.044;8.716;2024-03-17T08:33:24;6.80;;;4.43;;
25609;SDS011;13479;49.044;8.716;2024-03-17T08:38:21;6.45;;;5.05;;
25609;SDS011;13479;49.044;8.716;2024-03-17T08:40:48;6.85;;;4.63;;
25609;SDS011;13479;49.044;8.716;2024-03-17T08:43:17;10.30;;;4.68;;
25609;SDS011;13479;49.044;8.716;2024-03-17T08:45:42;6.72;;;4.50;;
25609;SDS011;13479;49.044;8.716;2024-03-17T08:48:08;5.22;;;3.85;;
25609;SDS011;13479;49.044;8.716;2024-03-17T08:50:35;7.28;;;4.45;;
25609;SDS011;13479;49.044;8.716;2024-03-17T08:53:00;6.00;;;4.50;;
25609;SDS011;13479;49.044;8.716;2024-03-17T08:55:25;5.38;;;3.58;;
25609;SDS011;13479;49.044;8.716;2024-03-17T08:57:51;6.40;;;3.50;;
25609;SDS011;13479;49.044;8.716;2024-03-17T09:00:16;6.15;;;3.97;;
25609;SDS011;13479;49.044;8.716;2024-03-17T09:02:41;4.80;;;3.92;;
25609;SDS011;13479;49.044;8.716;2024-03-17T09:05:07;5.68;;;4.15;;
25609;SDS011;13479;49.044;8.716;2024-03-17T09:07:32;6.88;;;4.65;;
25609;SDS011;13479;49.044;8.716;2024-03-17T09:09:58;6.60;;;4.75;;
25609;SDS011;13479;49.044;8.716;2024-03-17T09:12:24;4.60;;;3.50;;
25609;SDS011;13479;49.044;8.716;2024-03-17T09:14:49;6.22;;;5.18;;
25609;SDS011;13479;49.044;8.716;2024-03-17T09:17:15;6.40;;;4.55;;
25609;SDS011;13479;49.044;8.716;2024-03-17T09:19:40;6.20;;;4.30;;
25609;SDS011;13479;49.044;8.716;2024-03-17T09:22:06;5.78;;;4.43;;
25609;SDS011;13479;49.044;8.716;2024-03-17T09:24:31;6.47;;;4.38;;
25609;SDS011;13479;49.044;8.716;2024-03-17T09:26:56;6.07;;;4.03;;
25609;SDS011;13479;49.044;8.716;2024-03-17T09:29:22;8.35;;;5.28;;
25609;SDS011;13479;49.044;8.716;2024-03-17T09:31:47;6.63;;;4.13;;
25609;SDS011;13479;49.044;8.716;2024-03-17T09:34:12;6.65;;;4.80;;
25609;SDS011;13479;49.044;8.716;2024-03-17T09:36:37;6.93;;;4.90;;
25609;SDS011;13479;49.044;8.716;2024-03-17T09:39:03;8.00;;;5.43;;
25609;SDS011;13479;49.044;8.716;2024-03-17T09:41:30;6.75;;;5.32;;
25609;SDS011;13479;49.044;8.716;2024-03-17T09:43:58;6.85;;;5.13;;
25609;SDS011;13479;49.044;8.716;2024-03-17T09:46:24;6.95;;;4.80;;
25609;SDS011;13479;49.044;8.716;2024-03-17T09:48:52;6.03;;;4.97;;
25609;SDS011;13479;49.044;8.716;2024-03-17T09:51:22;6.10;;;4.75;;
25609;SDS011;13479;49.044;8.716;2024-03-17T09:53:48;5.25;;;4.10;;
25609;SDS011;13479;49.044;8.716;2024-03-17T09:56:15;5.85;;;4.28;;
25609;SDS011;13479;49.044;8.716;2024-03-17T09:58:42;7.15;;;4.57;;
25609;SDS011;13479;49.044;8.716;2024-03-17T10:01:07;6.38;;;5.03;;
25609;SDS011;13479;49.044;8.716;2024-03-17T10:03:43;6.95;;;4.80;;
25609;SDS011;13479;49.044;8.716;2024-03-17T10:06:16;5.85;;;4.88;;
25609;SDS011;13479;49.044;8.716;2024-03-17T10:08:52;5.80;;;4.18;;
25609;SDS011;13479;49.044;8.716;2024-03-17T10:11:20;7.07;;;4.65;;
25609;SDS011;13479;49.044;8.716;2024-03-17T10:13:47;5.78;;;4.53;;
25609;SDS011;13479;49.044;8.716;2024-03-17T10:19:49;7.03;;;4.72;;
25609;SDS011;13479;49.044;8.716;2024-03-17T10:22:14;5.65;;;4.15;;
25609;SDS011;13479;49.044;8.716;2024-03-17T10:24:40;6.70;;;4.28;;
25609;SDS011;13479;49.044;8.716;2024-03-17T10:27:05;7.00;;;4.35;;
25609;SDS011;13479;49.044;8.716;2024-03-17T10:29:35;5.95;;;4.50;;
25609;SDS011;13479;49.044;8.716;2024-03-17T10:34:39;5.72;;;4.38;;
25609;SDS011;13479;49.044;8.716;2024-03-17T10:37:05;4.90;;;4.03;;
25609;SDS011;13479;49.044;8.716;2024-03-17T10:39:36;5.10;;;3.60;;
25609;SDS011;13479;49.044;8.716;2024-03-17T10:42:05;4.63;;;3.72;;
25609;SDS011;13479;49.044;8.716;2024-03-17T10:44:32;5.38;;;3.20;;
25609;SDS011;13479;49.044;8.716;2024-03-17T10:47:00;4.85;;;3.03;;
25609;SDS011;13479;49.044;8.716;2024-03-17T10:49:30;4.80;;;2.20;;
25609;SDS011;13479;49.044;8.716;2024-03-17T10:51:58;3.35;;;2.10;;
25609;SDS011;13479;49.044;8.716;2024-03-17T10:54:31;4.35;;;2.13;;
25609;SDS011;13479;49.044;8.716;2024-03-17T10:57:02;4.15;;;1.92;;
25609;SDS011;13479;49.044;8.716;2024-03-17T10:59:52;4.07;;;2.40;;
25609;SDS011;13479;49.044;8.716;2024-03-17T11:02:20;3.13;;;2.40;;
25609;SDS011;13479;49.044;8.716;2024-03-17T11:07:47;3.08;;;1.48;;
25609;SDS011;13479;49.044;8.716;2024-03-17T11:12:59;3.63;;;1.70;;
25609;SDS011;13479;49.044;8.716;2024-03-17T11:21:24;3.58;;;1.98;;
25609;SDS011;13479;49.044;8.716;2024-03-17T11:23:57;3.30;;;1.88;;
25609;SDS011;13479;49.044;8.716;2024-03-17T11:26:30;4.55;;;1.98;;
25609;SDS011;13479;49.044;8.716;2024-03-17T11:29:01;3.50;;;2.20;;
25609;SDS011;13479;49.044;8.716;2024-03-17T11:31:35;3.35;;;1.60;;
25609;SDS011;13479;49.044;8.716;2024-03-17T11:37:00;4.25;;;2.60;;
25609;SDS011;13479;49.044;8.716;2024-03-17T11:39:47;4.40;;;2.83;;
25609;SDS011;13479;49.044;8.716;2024-03-17T11:42:22;4.15;;;2.70;;
25609;SDS011;13479;49.044;8.716;2024-03-17T11:44:59;4.40;;;2.60;;
25609;SDS011;13479;49.044;8.716;2024-03-17T11:47:39;4.40;;;2.75;;
25609;SDS011;13479;49.044;8.716;2024-03-17T11:50:06;4.82;;;2.95;;
25609;SDS011;13479;49.044;8.716;2024-03-17T11:52:34;3.80;;;3.03;;
25609;SDS011;13479;49.044;8.716;2024-03-17T11:55:00;3.65;;;2.63;;
25609;SDS011;13479;49.044;8.716;2024-03-17T11:57:26;7.18;;;2.67;;
25609;SDS011;13479;49.044;8.716;2024-03-17T11:59:52;4.03;;;2.83;;
25609;SDS011;13479;49.044;8.716;2024-03-17T12:04:51;4.22;;;2.60;;
25609;SDS011;13479;49.044;8.716;2024-03-17T12:07:19;5.25;;;2.55;;
25609;SDS011;13479;49.044;8.716;2024-03-17T12:09:48;4.60;;;3.03;;
25609;SDS011;13479;49.044;8.716;2024-03-17T12:12:20;4.82;;;2.72;;
25609;SDS011;13479;49.044;8.716;2024-03-17T12:14:48;5.05;;;2.60;;
25609;SDS011;13479;49.044;8.716;2024-03-17T12:17:24;6.53;;;2.65;;
25609;SDS011;13479;49.044;8.716;2024-03-17T12:19:49;4.40;;;2.70;;
25609;SDS011;13479;49.044;8.716;2024-03-17T12:22:18;4.93;;;2.78;;
25609;SDS011;13479;49.044;8.716;2024-03-17T12:25:06;5.25;;;3.00;;
25609;SDS011;13479;49.044;8.716;2024-03-17T12:27:43;4.70;;;3.10;;
25609;SDS011;13479;49.044;8.716;2024-03-17T12:30:09;4.47;;;2.40;;
25609;SDS011;13479;49.044;8.716;2024-03-17T12:32:35;5.50;;;3.15;;
25609;SDS011;13479;49.044;8.716;2024-03-17T12:35:00;4.28;;;2.80;;
25609;SDS011;13479;49.044;8.716;2024-03-17T12:37:27;5.03;;;3.10;;
25609;SDS011;13479;49.044;8.716;2024-03-17T12:39:59;5.78;;;2.95;;
25609;SDS011;13479;49.044;8.716;2024-03-17T12:42:25;3.90;;;2.70;;
25609;SDS011;13479;49.044;8.716;2024-03-17T12:44:52;6.43;;;3.17;;
25609;SDS011;13479;49.044;8.716;2024-03-17T12:47:20;3.58;;;2.40;;
25609;SDS011;13479;49.044;8.716;2024-03-17T12:49:46;5.25;;;3.03;;
25609;SDS011;13479;49.044;8.716;2024-03-17T12:52:19;3.75;;;2.60;;
25609;SDS011;13479;49.044;8.716;2024-03-17T12:55:00;4.82;;;2.65;;
25609;SDS011;13479;49.044;8.716;2024-03-17T12:58:06;5.55;;;2.55;;
25609;SDS011;13479;49.044;8.716;2024-03-17T13:01:01;4.50;;;2.83;;
25609;SDS011;13479;49.044;8.716;2024-03-17T13:05:58;4.43;;;2.83;;
25609;SDS011;13479;49.044;8.716;2024-03-17T13:08:23;5.53;;;2.30;;
25609;SDS011;13479;49.044;8.716;2024-03-17T13:10:49;7.15;;;3.08;;
25609;SDS011;13479;49.044;8.716;2024-03-17T13:13:14;3.47;;;2.42;;
25609;SDS011;13479;49.044;8.716;2024-03-17T13:15:41;3.88;;;2.70;;
25609;SDS011;13479;49.044;8.716;2024-03-17T13:18:07;4.68;;;2.67;;
25609;SDS011;13479;49.044;8.716;2024-03-17T13:20:32;7.13;;;2.67;;
25609;SDS011;13479;49.044;8.716;2024-03-17T13:22:58;4.03;;;2.53;;
25609;SDS011;13479;49.044;8.716;2024-03-17T13:25:27;9.25;;;2.83;;
25609;SDS011;13479;49.044;8.716;2024-03-17T13:27:58;6.90;;;3.10;;
25609;SDS011;13479;49.044;8.716;2024-03-17T13:30:23;6.95;;;3.25;;
25609;SDS011;13479;49.044;8.716;2024-03-17T13:32:51;4.55;;;3.00;;
25609;SDS011;13479;49.044;8.716;2024-03-17T13:35:26;5.95;;;3.40;;
25609;SDS011;13479;49.044;8.716;2024-03-17T13:37:53;7.15;;;2.97;;
25609;SDS011;13479;49.044;8.716;2024-03-17T13:40:19;6.05;;;3.03;;
25609;SDS011;13479;49.044;8.716;2024-03-17T13:42:46;3.88;;;2.78;;
25609;SDS011;13479;49.044;8.716;2024-03-17T13:45:13;4.75;;;2.83;;
25609;SDS011;13479;49.044;8.716;2024-03-17T13:47:39;4.32;;;2.80;;
25609;SDS011;13479;49.044;8.716;2024-03-17T13:50:10;4.53;;;2.60;;
25609;SDS011;13479;49.044;8.716;2024-03-17T13:52:37;3.95;;;2.60;;
25609;SDS011;13479;49.044;8.716;2024-03-17T13:55:04;4.80;;;2.78;;
25609;SDS011;13479;49.044;8.716;2024-03-17T13:57:31;6.90;;;2.92;;
25609;SDS011;13479;49.044;8.716;2024-03-17T14:00:00;3.45;;;2.58;;
25609;SDS011;13479;49.044;8.716;2024-03-17T14:02:25;4.22;;;2.80;;
25609;SDS011;13479;49.044;8.716;2024-03-17T14:04:50;4.45;;;2.80;;
25609;SDS011;13479;49.044;8.716;2024-03-17T14:07:15;5.93;;;2.92;;
25609;SDS011;13479;49.044;8.716;2024-03-17T14:09:41;4.88;;;2.53;;
25609;SDS011;13479;49.044;8.716;2024-03-17T14:12:09;4.40;;;3.15;;
25609;SDS011;13479;49.044;8.716;2024-03-17T14:14:34;5.53;;;2.72;;
25609;SDS011;13479;49.044;8.716;2024-03-17T14:17:00;4.95;;;2.90;;
25609;SDS011;13479;49.044;8.716;2024-03-17T14:19:25;4.60;;;2.67;;
25609;SDS011;13479;49.044;8.716;2024-03-17T14:21:51;4.15;;;2.30;;
25609;SDS011;13479;49.044;8.716;2024-03-17T14:24:16;5.15;;;2.60;;
25609;SDS011;13479;49.044;8.716;2024-03-17T14:26:42;5.38;;;2.42;;
25609;SDS011;13479;49.044;8.716;2024-03-17T14:29:07;4.63;;;2.63;;
25609;SDS011;13479;49.044;8.716;2024-03-17T14:31:32;4.75;;;2.92;;
25609;SDS011;13479;49.044;8.716;2024-03-17T14:34:01;5.20;;;3.10;;
25609;SDS011;13479;49.044;8.716;2024-03-17T14:36:26;4.53;;;2.78;;
25609;SDS011;13479;49.044;8.716;2024-03-17T14:38:53;6.05;;;2.63;;
25609;SDS011;13479;49.044;8.716;2024-03-17T14:41:18;5.53;;;2.70;;
25609;SDS011;13479;49.044;8.716;2024-03-17T14:43:44;4.38;;;2.80;;
25609;SDS011;13479;49.044;8.716;2024-03-17T14:46:10;6.18;;;2.75;;
25609;SDS011;13479;49.044;8.716;2024-03-17T14:48:38;4.82;;;3.13;;
25609;SDS011;13479;49.044;8.716;2024-03-17T14:51:04;5.05;;;2.97;;
25609;SDS011;13479;49.044;8.716;2024-03-17T14:53:29;3.83;;;2.30;;
25609;SDS011;13479;49.044;8.716;2024-03-17T14:55:54;5.85;;;2.90;;
25609;SDS011;13479;49.044;8.716;2024-03-17T14:58:19;4.82;;;3.03;;
25609;SDS011;13479;49.044;8.716;2024-03-17T15:00:46;5.00;;;2.83;;
25609;SDS011;13479;49.044;8.716;2024-03-17T15:03:11;5.15;;;2.22;;
25609;SDS011;13479;49.044;8.716;2024-03-17T15:05:38;5.07;;;2.90;;
25609;SDS011;13479;49.044;8.716;2024-03-17T15:08:03;7.15;;;2.83;;
25609;SDS011;13479;49.044;8.716;2024-03-17T15:10:28;4.20;;;2.33;;
25609;SDS011;13479;49.044;8.716;2024-03-17T15:12:54;4.75;;;2.80;;
25609;SDS011;13479;49.044;8.716;2024-03-17T15:15:19;4.07;;;2.60;;
25609;SDS011;13479;49.044;8.716;2024-03-17T15:17:45;4.50;;;1.85;;
25609;SDS011;13479;49.044;8.716;2024-03-17T15:20:10;2.78;;;1.70;;
25609;SDS011;13479;49.044;8.716;2024-03-17T15:22:44;3.88;;;1.88;;
25609;SDS011;13479;49.044;8.716;2024-03-17T15:25:10;2.97;;;1.95;;
25609;SDS011;13479;49.044;8.716;2024-03-17T15:27:37;4.20;;;1.60;;
25609;SDS011;13479;49.044;8.716;2024-03-17T15:30:02;3.55;;;1.90;;
25609;SDS011;13479;49.044;8.716;2024-03-17T15:32:28;3.47;;;1.55;;
25609;SDS011;13479;49.044;8.716;2024-03-17T15:34:53;4.47;;;1.65;;
25609;SDS011;13479;49.044;8.716;2024-03-17T15:37:18;4.32;;;1.77;;
25609;SDS011;13479;49.044;8.716;2024-03-17T15:39:43;4.25;;;1.60;;
25609;SDS011;13479;49.044;8.716;2024-03-17T15:42:09;3.25;;;1.65;;
25609;SDS011;13479;49.044;8.716;2024-03-17T15:44:37;3.05;;;1.52;;
25609;SDS011;13479;49.044;8.716;2024-03-17T15:47:03;2.95;;;1.20;;
25609;SDS011;13479;49.044;8.716;2024-03-17T15:49:29;2.10;;;1.20;;
25609;SDS011;13479;49.044;8.716;2024-03-17T15:51:55;5.15;;;1.52;;
25609;SDS011;13479;49.044;8.716;2024-03-17T15:54:20;3.30;;;1.33;;
25609;SDS011;13479;49.044;8.716;2024-03-17T15:56:45;5.25;;;1.30;;
25609;SDS011;13479;49.044;8.716;2024-03-17T15:59:10;4.50;;;1.40;;
25609;SDS011;13479;49.044;8.716;2024-03-17T16:01:36;2.72;;;1.23;;
25609;SDS011;13479;49.044;8.716;2024-03-17T16:04:01;3.15;;;1.35;;
25609;SDS011;13479;49.044;8.716;2024-03-17T16:06:27;4.03;;;1.38;;
25609;SDS011;13479;49.044;8.716;2024-03-17T16:08:53;4.00;;;1.40;;
25609;SDS011;13479;49.044;8.716;2024-03-17T16:11:23;4.97;;;1.80;;
25609;SDS011;13479;49.044;8.716;2024-03-17T16:13:55;4.03;;;2.55;;
25609;SDS011;13479;49.044;8.716;2024-03-17T16:16:23;5.20;;;2.58;;
25609;SDS011;13479;49.044;8.716;2024-03-17T16:18:56;4.72;;;2.63;;
25609;SDS011;13479;49.044;8.716;2024-03-17T16:21:22;4.47;;;2.50;;
25609;SDS011;13479;49.044;8.716;2024-03-17T16:23:49;4.28;;;2.55;;
25609;SDS011;13479;49.044;8.716;2024-03-17T16:27:06;5.22;;;2.40;;
25609;SDS011;13479;49.044;8.716;2024-03-17T16:32:33;5.55;;;2.30;;
25609;SDS011;13479;49.044;8.716;2024-03-17T16:34:59;4.20;;;2.25;;
25609;SDS011;13479;49.044;8.716;2024-03-17T16:37:24;5.00;;;2.30;;
25609;SDS011;13479;49.044;8.716;2024-03-17T16:39:49;4.75;;;2.25;;
25609;SDS011;13479;49.044;8.716;2024-03-17T16:42:15;4.30;;;2.25;;
25609;SDS011;13479;49.044;8.716;2024-03-17T16:44:44;4.75;;;2.20;;
25609;SDS011;13479;49.044;8.716;2024-03-17T16:47:20;4.68;;;1.70;;
25609;SDS011;13479;49.044;8.716;2024-03-17T16:49:48;5.03;;;1.70;;
25609;SDS011;13479;49.044;8.716;2024-03-17T16:58:12;6.07;;;1.70;;
25609;SDS011;13479;49.044;8.716;2024-03-17T17:00:56;2.15;;;1.20;;
25609;SDS011;13479;49.044;8.716;2024-03-17T17:03:21;6.28;;;1.30;;
25609;SDS011;13479;49.044;8.716;2024-03-17T17:05:46;3.75;;;1.40;;
25609;SDS011;13479;49.044;8.716;2024-03-17T17:08:12;2.90;;;1.30;;
25609;SDS011;13479;49.044;8.716;2024-03-17T17:10:37;2.00;;;1.00;;
25609;SDS011;13479;49.044;8.716;2024-03-17T17:13:02;3.13;;;1.20;;
25609;SDS011;13479;49.044;8.716;2024-03-17T17:15:28;5.22;;;1.35;;
25609;SDS011;13479;49.044;8.716;2024-03-17T17:17:53;3.22;;;1.20;;
25609;SDS011;13479;49.044;8.716;2024-03-17T17:20:22;3.15;;;1.40;;
25609;SDS011;13479;49.044;8.716;2024-03-17T17:22:47;3.45;;;1.40;;
25609;SDS011;13479;49.044;8.716;2024-03-17T17:25:13;5.03;;;1.27;;
25609;SDS011;13479;49.044;8.716;2024-03-17T17:27:39;8.52;;;4.00;;
25609;SDS011;13479;49.044;8.716;2024-03-17T17:30:08;6.80;;;3.97;;
25609;SDS011;13479;49.044;8.716;2024-03-17T17:32:33;5.32;;;2.03;;
25609;SDS011;13479;49.044;8.716;2024-03-17T17:34:59;5.18;;;2.10;;
25609;SDS011;13479;49.044;8.716;2024-03-17T17:37:25;4.22;;;2.53;;
25609;SDS011;13479;49.044;8.716;2024-03-17T17:39:50;4.75;;;3.03;;
25609;SDS011;13479;49.044;8.716;2024-03-17T17:42:16;4.93;;;2.70;;
25609;SDS011;13479;49.044;8.716;2024-03-17T17:44:41;8.98;;;4.00;;
25609;SDS011;13479;49.044;8.716;2024-03-17T17:47:06;5.65;;;2.47;;
25609;SDS011;13479;49.044;8.716;2024-03-17T17:49:31;4.43;;;1.90;;
25609;SDS011;13479;49.044;8.716;2024-03-17T17:51:57;4.68;;;2.00;;
25609;SDS011;13479;49.044;8.716;2024-03-17T17:54:22;3.47;;;2.13;;
25609;SDS011;13479;49.044;8.716;2024-03-17T17:56:48;4.10;;;2.00;;
25609;SDS011;13479;49.044;8.716;2024-03-17T17:59:13;4.47;;;2.30;;
25609;SDS011;13479;49.044;8.716;2024-03-17T18:01:39;5.07;;;2.90;;
25609;SDS011;13479;49.044;8.716;2024-03-17T18:04:05;8.35;;;4.00;;
25609;SDS011;13479;49.044;8.716;2024-03-17T18:06:31;7.88;;;3.90;;
25609;SDS011;13479;49.044;8.716;2024-03-17T18:08:57;9.23;;;2.92;;
25609;SDS011;13479;49.044;8.716;2024-03-17T18:11:23;9.77;;;3.40;;
25609;SDS011;13479;49.044;8.716;2024-03-17T18:13:49;9.88;;;4.00;;
25609;SDS011;13479;49.044;8.716;2024-03-17T18:16:14;11.20;;;4.10;;
25609;SDS011;13479;49.044;8.716;2024-03-17T18:18:40;15.43;;;5.40;;
25609;SDS011;13479;49.044;8.716;2024-03-17T18:21:06;13.55;;;4.70;;
25609;SDS011;13479;49.044;8.716;2024-03-17T18:23:33;13.75;;;4.80;;
25609;SDS011;13479;49.044;8.716;2024-03-17T18:26:03;10.75;;;4.20;;
25609;SDS011;13479;49.044;8.716;2024-03-17T18:28:31;5.65;;;2.40;;
25609;SDS011;13479;49.044;8.716;2024-03-17T18:30:56;5.53;;;2.50;;
25609;SDS011;13479;49.044;8.716;2024-03-17T18:33:21;3.10;;;1.80;;
25609;SDS011;13479;49.044;8.716;2024-03-17T18:35:47;4.05;;;1.75;;
25609;SDS011;13479;49.044;8.716;2024-03-17T18:38:16;3.67;;;1.50;;
25609;SDS011;13479;49.044;8.716;2024-03-17T18:40:44;3.38;;;1.33;;
25609;SDS011;13479;49.044;8.716;2024-03-17T18:43:09;3.17;;;1.70;;
25609;SDS011;13479;49.044;8.716;2024-03-17T18:45:34;4.35;;;1.90;;
25609;SDS011;13479;49.044;8.716;2024-03-17T18:48:00;5.70;;;2.80;;
25609;SDS011;13479;49.044;8.716;2024-03-17T18:50:25;7.07;;;3.40;;
25609;SDS011;13479;49.044;8.716;2024-03-17T18:52:50;9.77;;;4.47;;
25609;SDS011;13479;49.044;8.716;2024-03-17T18:55:16;10.02;;;6.00;;
25609;SDS011;13479;49.044;8.716;2024-03-17T18:57:43;10.65;;;5.07;;
25609;SDS011;13479;49.044;8.716;2024-03-17T19:00:09;10.15;;;4.32;;
25609;SDS011;13479;49.044;8.716;2024-03-17T19:02:41;8.38;;;4.60;;
25609;SDS011;13479;49.044;8.716;2024-03-17T19:05:13;10.52;;;4.60;;
25609;SDS011;13479;49.044;8.716;2024-03-17T19:07:39;9.32;;;4.72;;
25609;SDS011;13479;49.044;8.716;2024-03-17T19:10:04;10.75;;;4.60;;
25609;SDS011;13479;49.044;8.716;2024-03-17T19:12:33;7.18;;;4.47;;
25609;SDS011;13479;49.044;8.716;2024-03-17T19:15:00;9.15;;;4.20;;
25609;SDS011;13479;49.044;8.716;2024-03-17T19:17:26;7.82;;;4.35;;
25609;SDS011;13479;49.044;8.716;2024-03-17T19:19:52;9.65;;;3.58;;
25609;SDS011;13479;49.044;8.716;2024-03-17T19:22:17;7.35;;;3.50;;
25609;SDS011;13479;49.044;8.716;2024-03-17T19:24:44;9.15;;;3.22;;
25609;SDS011;13479;49.044;8.716;2024-03-17T19:27:10;7.40;;;3.47;;
25609;SDS011;13479;49.044;8.716;2024-03-17T19:29:35;6.90;;;3.63;;
25609;SDS011;13479;49.044;8.716;2024-03-17T19:32:00;6.85;;;3.42;;
25609;SDS011;13479;49.044;8.716;2024-03-17T19:34:25;7.18;;;3.35;;
25609;SDS011;13479;49.044;8.716;2024-03-17T19:36:51;7.63;;;3.97;;
25609;SDS011;13479;49.044;8.716;2024-03-17T19:39:16;10.30;;;4.90;;
25609;SDS011;13479;49.044;8.716;2024-03-17T19:41:42;7.60;;;4.55;;
25609;SDS011;13479;49.044;8.716;2024-03-17T19:44:08;16.38;;;9.55;;
25609;SDS011;13479;49.044;8.716;2024-03-17T19:46:33;12.05;;;7.65;;
25609;SDS011;13479;49.044;8.716;2024-03-17T19:48:59;12.48;;;7.30;;
25609;SDS011;13479;49.044;8.716;2024-03-17T19:51:25;14.85;;;8.68;;
25609;SDS011;13479;49.044;8.716;2024-03-17T19:53:51;14.48;;;8.02;;
25609;SDS011;13479;49.044;8.716;2024-03-17T19:56:16;15.55;;;7.90;;
25609;SDS011;13479;49.044;8.716;2024-03-17T19:58:42;16.00;;;8.85;;
25609;SDS011;13479;49.044;8.716;2024-03-17T20:01:08;13.50;;;7.57;;
25609;SDS011;13479;49.044;8.716;2024-03-17T20:03:35;11.80;;;6.50;;
25609;SDS011;13479;49.044;8.716;2024-03-17T20:06:01;10.57;;;5.50;;
25609;SDS011;13479;49.044;8.716;2024-03-17T20:08:30;9.02;;;5.10;;
25609;SDS011;13479;49.044;8.716;2024-03-17T20:10:55;13.00;;;5.50;;
25609;SDS011;13479;49.044;8.716;2024-03-17T20:13:22;11.18;;;6.07;;
25609;SDS011;13479;49.044;8.716;2024-03-17T20:15:48;10.90;;;6.68;;
25609;SDS011;13479;49.044;8.716;2024-03-17T20:18:15;11.23;;;6.65;;
25609;SDS011;13479;49.044;8.716;2024-03-17T20:20:40;13.95;;;7.28;;